sensor_id;sensor_type;location;lat;lon;timestamp;P1;durP1;ratioP1;P2;durP2;ratioP2
53062;SDS011;40529;52.172;10.548;2023-07-20T00:01:24;1.63;;;0.95;;
53062;SDS011;40529;52.172;10.548;2023-07-20T00:03:50;2.92;;;1.10;;
53062;SDS011;40529;52.172;10.548;2023-07-20T00:06:22;1.23;;;0.90;;
53062;SDS011;40529;52.172;10.548;2023-07-20T00:08:49;1.42;;;0.80;;
53062;SDS011;40529;52.172;10.548;2023-07-20T00:11:15;2.20;;;0.90;;
53062;SDS011;40529;52.172;10.548;2023-07-20T00:13:42;4.43;;;1.42;;
53062;SDS011;40529;52.172;10.548;2023-07-20T00:16:08;3.50;;;1.10;;
53062;SDS011;40529;52.172;10.548;2023-07-20T00:18:34;1.95;;;0.70;;
53062;SDS011;40529;52.172;10.548;2023-07-20T00:21:00;1.25;;;0.88;;
53062;SDS011;40529;52.172;10.548;2023-07-20T00:23:26;4.75;;;1.38;;
53062;SDS011;40529;52.172;10.548;2023-07-20T00:25:52;3.53;;;0.85;;
53062;SDS011;40529;52.172;10.548;2023-07-20T00:28:19;3.92;;;1.00;;
53062;SDS011;40529;52.172;10.548;2023-07-20T00:30:45;3.15;;;0.98;;
53062;SDS011;40529;52.172;10.548;2023-07-20T00:33:11;3.67;;;1.13;;
53062;SDS011;40529;52.172;10.548;2023-07-20T00:35:37;3.13;;;1.10;;
53062;SDS011;40529;52.172;10.548;2023-07-20T00:38:04;2.45;;;1.08;;
53062;SDS011;40529;52.172;10.548;2023-07-20T00:40:36;2.17;;;1.08;;
53062;SDS011;40529;52.172;10.548;2023-07-20T00:43:02;3.38;;;1.00;;
53062;SDS011;40529;52.172;10.548;2023-07-20T00:45:29;2.80;;;1.10;;
53062;SDS011;40529;52.172;10.548;2023-07-20T00:47:55;1.25;;;0.80;;
53062;SDS011;40529;52.172;10.548;2023-07-20T00:50:22;3.00;;;1.00;;
53062;SDS011;40529;52.172;10.548;2023-07-20T00:52:48;1.30;;;0.90;;
53062;SDS011;40529;52.172;10.548;2023-07-20T00:55:14;1.33;;;1.20;;
53062;SDS011;40529;52.172;10.548;2023-07-20T00:57:40;2.17;;;1.02;;
53062;SDS011;40529;52.172;10.548;2023-07-20T01:00:07;1.50;;;1.00;;
53062;SDS011;40529;52.172;10.548;2023-07-20T01:02:33;1.45;;;1.08;;
53062;SDS011;40529;52.172;10.548;2023-07-20T01:04:59;1.75;;;0.90;;
53062;SDS011;40529;52.172;10.548;2023-07-20T01:10:03;1.95;;;1.00;;
53062;SDS011;40529;52.172;10.548;2023-07-20T01:14:58;1.42;;;1.00;;
53062;SDS011;40529;52.172;10.548;2023-07-20T01:17:24;1.30;;;1.00;;
53062;SDS011;40529;52.172;10.548;2023-07-20T01:19:50;1.92;;;1.00;;
53062;SDS011;40529;52.172;10.548;2023-07-20T01:32:40;1.88;;;0.90;;
53062;SDS011;40529;52.172;10.548;2023-07-20T01:35:08;1.52;;;1.10;;
53062;SDS011;40529;52.172;10.548;2023-07-20T01:37:35;1.73;;;0.80;;
53062;SDS011;40529;52.172;10.548;2023-07-20T01:40:01;0.80;;;0.80;;
53062;SDS011;40529;52.172;10.548;2023-07-20T01:42:27;1.10;;;0.90;;
53062;SDS011;40529;52.172;10.548;2023-07-20T01:44:53;1.50;;;0.95;;
53062;SDS011;40529;52.172;10.548;2023-07-20T01:47:19;1.48;;;1.00;;
53062;SDS011;40529;52.172;10.548;2023-07-20T01:49:45;1.50;;;0.80;;
53062;SDS011;40529;52.172;10.548;2023-07-20T01:52:11;1.23;;;1.00;;
53062;SDS011;40529;52.172;10.548;2023-07-20T01:54:37;2.85;;;1.05;;
53062;SDS011;40529;52.172;10.548;2023-07-20T01:57:03;1.55;;;1.00;;
53062;SDS011;40529;52.172;10.548;2023-07-20T01:59:29;1.80;;;0.82;;
53062;SDS011;40529;52.172;10.548;2023-07-20T02:01:55;1.15;;;0.90;;
53062;SDS011;40529;52.172;10.548;2023-07-20T02:04:21;1.70;;;1.00;;
53062;SDS011;40529;52.172;10.548;2023-07-20T02:06:47;2.90;;;1.20;;
53062;SDS011;40529;52.172;10.548;2023-07-20T02:09:13;1.15;;;0.90;;
53062;SDS011;40529;52.172;10.548;2023-07-20T02:11:39;0.80;;;0.80;;
53062;SDS011;40529;52.172;10.548;2023-07-20T02:14:05;1.92;;;0.80;;
53062;SDS011;40529;52.172;10.548;2023-07-20T02:16:31;2.22;;;0.88;;
53062;SDS011;40529;52.172;10.548;2023-07-20T02:18:57;1.05;;;0.90;;
53062;SDS011;40529;52.172;10.548;2023-07-20T02:21:23;1.70;;;1.10;;
53062;SDS011;40529;52.172;10.548;2023-07-20T02:23:49;2.55;;;1.10;;
53062;SDS011;40529;52.172;10.548;2023-07-20T02:26:15;3.70;;;0.98;;
53062;SDS011;40529;52.172;10.548;2023-07-20T02:28:41;1.00;;;0.90;;
53062;SDS011;40529;52.172;10.548;2023-07-20T02:31:07;1.23;;;0.70;;
53062;SDS011;40529;52.172;10.548;2023-07-20T02:33:33;0.80;;;0.70;;
53062;SDS011;40529;52.172;10.548;2023-07-20T02:35:59;1.50;;;0.90;;
53062;SDS011;40529;52.172;10.548;2023-07-20T02:38:25;1.63;;;1.05;;
53062;SDS011;40529;52.172;10.548;2023-07-20T02:40:51;1.63;;;0.90;;
53062;SDS011;40529;52.172;10.548;2023-07-20T02:43:17;1.20;;;1.00;;
53062;SDS011;40529;52.172;10.548;2023-07-20T02:45:43;3.70;;;1.02;;
53062;SDS011;40529;52.172;10.548;2023-07-20T02:48:09;0.90;;;0.90;;
53062;SDS011;40529;52.172;10.548;2023-07-20T02:50:35;1.65;;;1.10;;
53062;SDS011;40529;52.172;10.548;2023-07-20T02:53:02;1.10;;;0.88;;
53062;SDS011;40529;52.172;10.548;2023-07-20T02:55:28;1.70;;;1.00;;
53062;SDS011;40529;52.172;10.548;2023-07-20T02:57:54;1.55;;;0.98;;
53062;SDS011;40529;52.172;10.548;2023-07-20T03:00:20;1.95;;;1.55;;
53062;SDS011;40529;52.172;10.548;2023-07-20T03:02:48;1.67;;;0.98;;
53062;SDS011;40529;52.172;10.548;2023-07-20T03:05:17;5.85;;;0.90;;
53062;SDS011;40529;52.172;10.548;2023-07-20T03:07:43;2.65;;;1.20;;
53062;SDS011;40529;52.172;10.548;2023-07-20T03:10:10;1.80;;;1.10;;
53062;SDS011;40529;52.172;10.548;2023-07-20T03:12:36;2.75;;;1.10;;
53062;SDS011;40529;52.172;10.548;2023-07-20T03:15:02;1.38;;;1.15;;
53062;SDS011;40529;52.172;10.548;2023-07-20T03:17:29;1.90;;;1.38;;
53062;SDS011;40529;52.172;10.548;2023-07-20T03:19:55;2.42;;;1.10;;
53062;SDS011;40529;52.172;10.548;2023-07-20T03:22:21;3.13;;;1.60;;
53062;SDS011;40529;52.172;10.548;2023-07-20T03:24:47;3.17;;;1.10;;
53062;SDS011;40529;52.172;10.548;2023-07-20T03:27:13;1.95;;;1.02;;
53062;SDS011;40529;52.172;10.548;2023-07-20T03:29:39;2.58;;;0.93;;
53062;SDS011;40529;52.172;10.548;2023-07-20T03:32:05;3.47;;;1.30;;
53062;SDS011;40529;52.172;10.548;2023-07-20T03:34:32;1.67;;;1.13;;
53062;SDS011;40529;52.172;10.548;2023-07-20T03:36:58;2.05;;;1.35;;
53062;SDS011;40529;52.172;10.548;2023-07-20T03:39:24;1.77;;;1.48;;
53062;SDS011;40529;52.172;10.548;2023-07-20T03:41:50;2.08;;;1.50;;
53062;SDS011;40529;52.172;10.548;2023-07-20T03:44:16;1.73;;;1.30;;
53062;SDS011;40529;52.172;10.548;2023-07-20T03:46:42;4.75;;;1.50;;
53062;SDS011;40529;52.172;10.548;2023-07-20T03:49:08;2.30;;;1.83;;
53062;SDS011;40529;52.172;10.548;2023-07-20T03:51:35;4.53;;;1.25;;
53062;SDS011;40529;52.172;10.548;2023-07-20T03:54:01;2.95;;;1.80;;
53062;SDS011;40529;52.172;10.548;2023-07-20T03:56:27;3.30;;;1.70;;
53062;SDS011;40529;52.172;10.548;2023-07-20T03:58:53;4.13;;;2.05;;
53062;SDS011;40529;52.172;10.548;2023-07-20T04:01:19;1.90;;;1.60;;
53062;SDS011;40529;52.172;10.548;2023-07-20T04:03:45;2.53;;;1.77;;
53062;SDS011;40529;52.172;10.548;2023-07-20T04:06:11;2.83;;;1.80;;
53062;SDS011;40529;52.172;10.548;2023-07-20T04:08:39;5.38;;;2.00;;
53062;SDS011;40529;52.172;10.548;2023-07-20T04:11:05;4.72;;;1.98;;
53062;SDS011;40529;52.172;10.548;2023-07-20T04:13:31;2.75;;;1.67;;
53062;SDS011;40529;52.172;10.548;2023-07-20T04:16:00;3.65;;;2.13;;
53062;SDS011;40529;52.172;10.548;2023-07-20T04:18:27;1.50;;;1.40;;
53062;SDS011;40529;52.172;10.548;2023-07-20T04:20:53;2.25;;;1.70;;
53062;SDS011;40529;52.172;10.548;2023-07-20T04:23:19;3.72;;;1.60;;
53062;SDS011;40529;52.172;10.548;2023-07-20T04:25:45;2.20;;;1.65;;
53062;SDS011;40529;52.172;10.548;2023-07-20T04:28:12;1.80;;;1.70;;
53062;SDS011;40529;52.172;10.548;2023-07-20T04:30:38;2.40;;;1.70;;
53062;SDS011;40529;52.172;10.548;2023-07-20T04:33:07;4.32;;;1.60;;
53062;SDS011;40529;52.172;10.548;2023-07-20T04:35:47;1.70;;;1.52;;
53062;SDS011;40529;52.172;10.548;2023-07-20T04:38:13;1.95;;;1.77;;
53062;SDS011;40529;52.172;10.548;2023-07-20T04:40:46;2.00;;;1.80;;
53062;SDS011;40529;52.172;10.548;2023-07-20T04:43:12;3.92;;;1.63;;
53062;SDS011;40529;52.172;10.548;2023-07-20T04:45:38;3.58;;;1.80;;
53062;SDS011;40529;52.172;10.548;2023-07-20T04:48:14;3.47;;;1.52;;
53062;SDS011;40529;52.172;10.548;2023-07-20T04:50:41;3.38;;;1.90;;
53062;SDS011;40529;52.172;10.548;2023-07-20T04:53:08;1.45;;;1.35;;
53062;SDS011;40529;52.172;10.548;2023-07-20T04:55:35;3.72;;;1.60;;
53062;SDS011;40529;52.172;10.548;2023-07-20T04:58:02;1.73;;;1.50;;
53062;SDS011;40529;52.172;10.548;2023-07-20T05:00:28;2.63;;;1.50;;
53062;SDS011;40529;52.172;10.548;2023-07-20T05:02:55;1.50;;;1.40;;
53062;SDS011;40529;52.172;10.548;2023-07-20T05:05:21;1.40;;;1.20;;
53062;SDS011;40529;52.172;10.548;2023-07-20T05:07:47;3.47;;;1.20;;
53062;SDS011;40529;52.172;10.548;2023-07-20T05:10:13;1.45;;;1.00;;
53062;SDS011;40529;52.172;10.548;2023-07-20T05:12:39;2.65;;;1.17;;
53062;SDS011;40529;52.172;10.548;2023-07-20T05:15:05;2.13;;;1.50;;
53062;SDS011;40529;52.172;10.548;2023-07-20T05:17:31;2.38;;;1.45;;
53062;SDS011;40529;52.172;10.548;2023-07-20T05:19:57;2.25;;;1.38;;
53062;SDS011;40529;52.172;10.548;2023-07-20T05:22:23;3.30;;;1.30;;
53062;SDS011;40529;52.172;10.548;2023-07-20T05:24:50;2.65;;;1.33;;
53062;SDS011;40529;52.172;10.548;2023-07-20T05:27:16;2.25;;;1.10;;
53062;SDS011;40529;52.172;10.548;2023-07-20T05:29:45;2.20;;;1.25;;
53062;SDS011;40529;52.172;10.548;2023-07-20T05:32:12;2.55;;;1.23;;
53062;SDS011;40529;52.172;10.548;2023-07-20T05:34:38;1.30;;;1.20;;
53062;SDS011;40529;52.172;10.548;2023-07-20T05:37:04;2.90;;;1.40;;
53062;SDS011;40529;52.172;10.548;2023-07-20T05:39:32;2.58;;;1.00;;
53062;SDS011;40529;52.172;10.548;2023-07-20T05:41:58;4.25;;;1.40;;
53062;SDS011;40529;52.172;10.548;2023-07-20T05:44:24;5.03;;;2.13;;
53062;SDS011;40529;52.172;10.548;2023-07-20T05:46:50;2.45;;;1.35;;
53062;SDS011;40529;52.172;10.548;2023-07-20T05:49:16;3.72;;;1.30;;
53062;SDS011;40529;52.172;10.548;2023-07-20T05:51:42;1.90;;;1.58;;
53062;SDS011;40529;52.172;10.548;2023-07-20T05:54:08;3.22;;;1.90;;
53062;SDS011;40529;52.172;10.548;2023-07-20T05:56:34;3.63;;;1.92;;
53062;SDS011;40529;52.172;10.548;2023-07-20T05:59:00;3.78;;;2.40;;
53062;SDS011;40529;52.172;10.548;2023-07-20T06:01:27;5.55;;;2.50;;
53062;SDS011;40529;52.172;10.548;2023-07-20T06:03:53;3.88;;;2.58;;
53062;SDS011;40529;52.172;10.548;2023-07-20T06:06:19;3.35;;;2.00;;
53062;SDS011;40529;52.172;10.548;2023-07-20T06:08:45;1.83;;;1.52;;
53062;SDS011;40529;52.172;10.548;2023-07-20T06:11:11;3.05;;;1.50;;
53062;SDS011;40529;52.172;10.548;2023-07-20T06:13:37;3.95;;;1.80;;
53062;SDS011;40529;52.172;10.548;2023-07-20T06:16:03;5.07;;;1.58;;
53062;SDS011;40529;52.172;10.548;2023-07-20T06:18:29;2.95;;;1.60;;
53062;SDS011;40529;52.172;10.548;2023-07-20T06:20:56;3.05;;;1.58;;
53062;SDS011;40529;52.172;10.548;2023-07-20T06:23:22;1.60;;;1.30;;
53062;SDS011;40529;52.172;10.548;2023-07-20T06:25:48;2.22;;;2.03;;
53062;SDS011;40529;52.172;10.548;2023-07-20T06:28:14;2.30;;;1.75;;
53062;SDS011;40529;52.172;10.548;2023-07-20T06:30:40;2.08;;;1.65;;
53062;SDS011;40529;52.172;10.548;2023-07-20T06:33:06;3.45;;;1.80;;
53062;SDS011;40529;52.172;10.548;2023-07-20T06:35:33;4.70;;;1.98;;
53062;SDS011;40529;52.172;10.548;2023-07-20T06:38:00;4.43;;;2.20;;
53062;SDS011;40529;52.172;10.548;2023-07-20T06:40:26;4.50;;;2.17;;
53062;SDS011;40529;52.172;10.548;2023-07-20T06:43:06;2.75;;;2.22;;
53062;SDS011;40529;52.172;10.548;2023-07-20T06:45:32;4.10;;;2.75;;
53062;SDS011;40529;52.172;10.548;2023-07-20T06:47:58;2.67;;;2.35;;
53062;SDS011;40529;52.172;10.548;2023-07-20T06:50:24;6.05;;;2.67;;
53062;SDS011;40529;52.172;10.548;2023-07-20T06:52:50;3.30;;;2.83;;
53062;SDS011;40529;52.172;10.548;2023-07-20T06:55:16;4.32;;;2.55;;
53062;SDS011;40529;52.172;10.548;2023-07-20T06:57:42;4.97;;;2.42;;
53062;SDS011;40529;52.172;10.548;2023-07-20T07:00:09;2.28;;;1.70;;
53062;SDS011;40529;52.172;10.548;2023-07-20T07:02:35;2.80;;;2.20;;
53062;SDS011;40529;52.172;10.548;2023-07-20T07:05:01;3.63;;;2.38;;
53062;SDS011;40529;52.172;10.548;2023-07-20T07:07:27;2.90;;;2.53;;
53062;SDS011;40529;52.172;10.548;2023-07-20T07:09:53;3.22;;;2.70;;
53062;SDS011;40529;52.172;10.548;2023-07-20T07:12:19;4.03;;;3.03;;
53062;SDS011;40529;52.172;10.548;2023-07-20T07:14:45;3.83;;;3.38;;
53062;SDS011;40529;52.172;10.548;2023-07-20T07:17:11;6.07;;;3.63;;
53062;SDS011;40529;52.172;10.548;2023-07-20T07:19:37;5.82;;;3.95;;
53062;SDS011;40529;52.172;10.548;2023-07-20T07:22:03;6.88;;;4.55;;
53062;SDS011;40529;52.172;10.548;2023-07-20T07:24:29;6.85;;;4.40;;
53062;SDS011;40529;52.172;10.548;2023-07-20T07:26:59;5.32;;;4.82;;
53062;SDS011;40529;52.172;10.548;2023-07-20T07:29:25;6.00;;;5.25;;
53062;SDS011;40529;52.172;10.548;2023-07-20T07:31:51;7.13;;;5.32;;
53062;SDS011;40529;52.172;10.548;2023-07-20T07:34:17;6.63;;;5.03;;
53062;SDS011;40529;52.172;10.548;2023-07-20T07:36:44;8.35;;;5.75;;
53062;SDS011;40529;52.172;10.548;2023-07-20T07:39:10;6.57;;;5.22;;
53062;SDS011;40529;52.172;10.548;2023-07-20T07:41:36;5.85;;;5.25;;
53062;SDS011;40529;52.172;10.548;2023-07-20T07:44:02;5.88;;;5.03;;
53062;SDS011;40529;52.172;10.548;2023-07-20T07:46:29;4.68;;;4.18;;
53062;SDS011;40529;52.172;10.548;2023-07-20T07:48:55;6.00;;;3.80;;
53062;SDS011;40529;52.172;10.548;2023-07-20T07:51:21;5.22;;;4.05;;
53062;SDS011;40529;52.172;10.548;2023-07-20T07:53:47;6.70;;;4.10;;
53062;SDS011;40529;52.172;10.548;2023-07-20T07:56:14;3.35;;;3.05;;
53062;SDS011;40529;52.172;10.548;2023-07-20T07:58:41;3.25;;;2.95;;
53062;SDS011;40529;52.172;10.548;2023-07-20T08:01:07;3.28;;;2.80;;
53062;SDS011;40529;52.172;10.548;2023-07-20T08:03:34;2.60;;;2.30;;
53062;SDS011;40529;52.172;10.548;2023-07-20T08:06:01;3.40;;;2.22;;
53062;SDS011;40529;52.172;10.548;2023-07-20T08:08:29;1.90;;;1.80;;
53062;SDS011;40529;52.172;10.548;2023-07-20T08:10:55;3.55;;;2.15;;
53062;SDS011;40529;52.172;10.548;2023-07-20T08:13:21;2.10;;;1.80;;
53062;SDS011;40529;52.172;10.548;2023-07-20T08:15:49;2.20;;;2.00;;
53062;SDS011;40529;52.172;10.548;2023-07-20T08:18:16;3.22;;;1.85;;
53062;SDS011;40529;52.172;10.548;2023-07-20T08:20:45;2.20;;;2.00;;
53062;SDS011;40529;52.172;10.548;2023-07-20T08:23:12;3.22;;;2.00;;
53062;SDS011;40529;52.172;10.548;2023-07-20T08:25:39;1.95;;;1.85;;
53062;SDS011;40529;52.172;10.548;2023-07-20T08:28:08;2.35;;;1.80;;
53062;SDS011;40529;52.172;10.548;2023-07-20T08:30:47;3.17;;;2.15;;
53062;SDS011;40529;52.172;10.548;2023-07-20T08:33:14;2.10;;;1.60;;
53062;SDS011;40529;52.172;10.548;2023-07-20T08:35:41;2.05;;;1.85;;
53062;SDS011;40529;52.172;10.548;2023-07-20T08:38:07;1.90;;;1.80;;
53062;SDS011;40529;52.172;10.548;2023-07-20T08:40:34;1.70;;;1.60;;
53062;SDS011;40529;52.172;10.548;2023-07-20T08:43:00;2.95;;;1.75;;
53062;SDS011;40529;52.172;10.548;2023-07-20T08:45:27;1.98;;;1.85;;
53062;SDS011;40529;52.172;10.548;2023-07-20T08:47:58;1.92;;;1.83;;
53062;SDS011;40529;52.172;10.548;2023-07-20T08:50:27;2.03;;;1.80;;
53062;SDS011;40529;52.172;10.548;2023-07-20T08:52:54;1.70;;;1.60;;
53062;SDS011;40529;52.172;10.548;2023-07-20T08:55:22;1.48;;;1.27;;
53062;SDS011;40529;52.172;10.548;2023-07-20T08:57:55;1.60;;;1.25;;
53062;SDS011;40529;52.172;10.548;2023-07-20T09:00:22;1.40;;;1.30;;
53062;SDS011;40529;52.172;10.548;2023-07-20T09:02:52;2.40;;;1.35;;
53062;SDS011;40529;52.172;10.548;2023-07-20T09:05:19;2.97;;;1.48;;
53062;SDS011;40529;52.172;10.548;2023-07-20T09:07:45;1.55;;;1.25;;
53062;SDS011;40529;52.172;10.548;2023-07-20T09:10:12;1.10;;;1.00;;
53062;SDS011;40529;52.172;10.548;2023-07-20T09:12:38;1.00;;;0.82;;
53062;SDS011;40529;52.172;10.548;2023-07-20T09:15:08;0.93;;;0.82;;
53062;SDS011;40529;52.172;10.548;2023-07-20T09:20:04;0.77;;;0.70;;
53062;SDS011;40529;52.172;10.548;2023-07-20T09:22:36;1.02;;;0.88;;
53062;SDS011;40529;52.172;10.548;2023-07-20T09:27:34;1.20;;;0.80;;
53062;SDS011;40529;52.172;10.548;2023-07-20T09:32:27;0.55;;;0.55;;
53062;SDS011;40529;52.172;10.548;2023-07-20T09:34:53;2.58;;;0.50;;
53062;SDS011;40529;52.172;10.548;2023-07-20T09:37:22;0.73;;;0.50;;
53062;SDS011;40529;52.172;10.548;2023-07-20T09:39:48;1.20;;;0.40;;
53062;SDS011;40529;52.172;10.548;2023-07-20T09:42:17;1.33;;;0.70;;
53062;SDS011;40529;52.172;10.548;2023-07-20T09:44:43;1.40;;;0.70;;
53062;SDS011;40529;52.172;10.548;2023-07-20T09:47:10;1.08;;;0.70;;
53062;SDS011;40529;52.172;10.548;2023-07-20T09:49:40;1.25;;;0.50;;
53062;SDS011;40529;52.172;10.548;2023-07-20T09:54:32;1.08;;;0.70;;
53062;SDS011;40529;52.172;10.548;2023-07-20T09:56:58;0.68;;;0.52;;
53062;SDS011;40529;52.172;10.548;2023-07-20T09:59:24;0.98;;;0.55;;
53062;SDS011;40529;52.172;10.548;2023-07-20T10:01:50;1.30;;;0.70;;
53062;SDS011;40529;52.172;10.548;2023-07-20T10:04:19;0.73;;;0.70;;
53062;SDS011;40529;52.172;10.548;2023-07-20T10:06:47;1.90;;;0.85;;
53062;SDS011;40529;52.172;10.548;2023-07-20T10:09:15;0.70;;;0.57;;
53062;SDS011;40529;52.172;10.548;2023-07-20T10:11:45;0.57;;;0.57;;
53062;SDS011;40529;52.172;10.548;2023-07-20T10:14:16;1.25;;;0.50;;
53062;SDS011;40529;52.172;10.548;2023-07-20T10:16:51;1.08;;;0.60;;
53062;SDS011;40529;52.172;10.548;2023-07-20T10:19:28;0.47;;;0.47;;
53062;SDS011;40529;52.172;10.548;2023-07-20T10:22:10;0.70;;;0.40;;
53062;SDS011;40529;52.172;10.548;2023-07-20T10:24:38;1.10;;;0.50;;
53062;SDS011;40529;52.172;10.548;2023-07-20T10:27:04;0.40;;;0.40;;
53062;SDS011;40529;52.172;10.548;2023-07-20T10:29:31;0.40;;;0.40;;
53062;SDS011;40529;52.172;10.548;2023-07-20T10:31:57;0.50;;;0.50;;
53062;SDS011;40529;52.172;10.548;2023-07-20T10:34:23;1.27;;;0.50;;
53062;SDS011;40529;52.172;10.548;2023-07-20T10:36:50;0.65;;;0.50;;
53062;SDS011;40529;52.172;10.548;2023-07-20T10:39:23;0.65;;;0.50;;
53062;SDS011;40529;52.172;10.548;2023-07-20T10:41:59;1.65;;;0.30;;
53062;SDS011;40529;52.172;10.548;2023-07-20T10:44:25;0.30;;;0.30;;
53062;SDS011;40529;52.172;10.548;2023-07-20T10:46:52;0.20;;;0.20;;
53062;SDS011;40529;52.172;10.548;2023-07-20T10:49:24;1.02;;;0.40;;
53062;SDS011;40529;52.172;10.548;2023-07-20T10:52:13;0.52;;;0.30;;
53062;SDS011;40529;52.172;10.548;2023-07-20T10:54:46;0.43;;;0.30;;
53062;SDS011;40529;52.172;10.548;2023-07-20T10:59:49;0.82;;;0.50;;
53062;SDS011;40529;52.172;10.548;2023-07-20T11:02:17;0.68;;;0.30;;
53062;SDS011;40529;52.172;10.548;2023-07-20T11:04:44;1.25;;;0.30;;
53062;SDS011;40529;52.172;10.548;2023-07-20T11:07:14;0.98;;;0.30;;
53062;SDS011;40529;52.172;10.548;2023-07-20T11:09:41;0.40;;;0.30;;
53062;SDS011;40529;52.172;10.548;2023-07-20T11:12:11;1.38;;;0.40;;
53062;SDS011;40529;52.172;10.548;2023-07-20T11:14:42;1.00;;;0.40;;
53062;SDS011;40529;52.172;10.548;2023-07-20T11:17:12;0.77;;;0.40;;
53062;SDS011;40529;52.172;10.548;2023-07-20T11:19:45;0.50;;;0.30;;
53062;SDS011;40529;52.172;10.548;2023-07-20T11:22:13;1.85;;;0.50;;
53062;SDS011;40529;52.172;10.548;2023-07-20T11:24:41;0.77;;;0.50;;
53062;SDS011;40529;52.172;10.548;2023-07-20T11:27:08;1.48;;;0.60;;
53062;SDS011;40529;52.172;10.548;2023-07-20T11:29:34;1.95;;;0.43;;
53062;SDS011;40529;52.172;10.548;2023-07-20T11:32:02;2.28;;;0.60;;
53062;SDS011;40529;52.172;10.548;2023-07-20T11:34:34;3.97;;;0.80;;
53062;SDS011;40529;52.172;10.548;2023-07-20T11:37:00;1.08;;;0.70;;
53062;SDS011;40529;52.172;10.548;2023-07-20T11:39:27;2.45;;;0.70;;
53062;SDS011;40529;52.172;10.548;2023-07-20T11:41:55;0.73;;;0.50;;
53062;SDS011;40529;52.172;10.548;2023-07-20T11:44:22;1.00;;;0.65;;
53062;SDS011;40529;52.172;10.548;2023-07-20T11:47:05;1.33;;;0.60;;
53062;SDS011;40529;52.172;10.548;2023-07-20T11:49:35;1.73;;;0.70;;
53062;SDS011;40529;52.172;10.548;2023-07-20T11:52:02;0.52;;;0.47;;
53062;SDS011;40529;52.172;10.548;2023-07-20T11:54:29;0.60;;;0.50;;
53062;SDS011;40529;52.172;10.548;2023-07-20T11:56:56;0.93;;;0.55;;
53062;SDS011;40529;52.172;10.548;2023-07-20T11:59:22;2.08;;;0.40;;
53062;SDS011;40529;52.172;10.548;2023-07-20T12:01:49;2.30;;;0.30;;
53062;SDS011;40529;52.172;10.548;2023-07-20T12:04:15;1.15;;;0.50;;
53062;SDS011;40529;52.172;10.548;2023-07-20T12:06:41;1.10;;;0.40;;
53062;SDS011;40529;52.172;10.548;2023-07-20T12:09:12;1.50;;;0.50;;
53062;SDS011;40529;52.172;10.548;2023-07-20T12:11:39;0.52;;;0.35;;
53062;SDS011;40529;52.172;10.548;2023-07-20T12:14:08;1.45;;;0.50;;
53062;SDS011;40529;52.172;10.548;2023-07-20T12:19:01;0.63;;;0.40;;
53062;SDS011;40529;52.172;10.548;2023-07-20T12:21:28;0.60;;;0.40;;
53062;SDS011;40529;52.172;10.548;2023-07-20T12:23:55;1.85;;;0.38;;
53062;SDS011;40529;52.172;10.548;2023-07-20T12:26:22;0.60;;;0.45;;
53062;SDS011;40529;52.172;10.548;2023-07-20T12:28:49;1.05;;;0.35;;
53062;SDS011;40529;52.172;10.548;2023-07-20T12:31:15;1.05;;;0.40;;
53062;SDS011;40529;52.172;10.548;2023-07-20T12:33:41;2.22;;;0.40;;
53062;SDS011;40529;52.172;10.548;2023-07-20T12:36:08;1.92;;;0.40;;
53062;SDS011;40529;52.172;10.548;2023-07-20T12:38:34;0.77;;;0.40;;
53062;SDS011;40529;52.172;10.548;2023-07-20T12:41:03;1.77;;;0.30;;
53062;SDS011;40529;52.172;10.548;2023-07-20T12:43:29;0.40;;;0.40;;
53062;SDS011;40529;52.172;10.548;2023-07-20T12:45:57;0.70;;;0.40;;
53062;SDS011;40529;52.172;10.548;2023-07-20T12:48:23;0.52;;;0.40;;
53062;SDS011;40529;52.172;10.548;2023-07-20T12:50:49;0.63;;;0.40;;
53062;SDS011;40529;52.172;10.548;2023-07-20T12:53:15;1.20;;;0.40;;
53062;SDS011;40529;52.172;10.548;2023-07-20T12:55:41;0.47;;;0.35;;
53062;SDS011;40529;52.172;10.548;2023-07-20T12:58:07;0.57;;;0.20;;
53062;SDS011;40529;52.172;10.548;2023-07-20T13:00:34;0.52;;;0.30;;
53062;SDS011;40529;52.172;10.548;2023-07-20T13:03:01;1.95;;;0.38;;
53062;SDS011;40529;52.172;10.548;2023-07-20T13:05:29;0.65;;;0.30;;
53062;SDS011;40529;52.172;10.548;2023-07-20T13:07:56;2.28;;;0.40;;
53062;SDS011;40529;52.172;10.548;2023-07-20T13:10:23;0.52;;;0.30;;
53062;SDS011;40529;52.172;10.548;2023-07-20T13:12:49;1.90;;;0.60;;
53062;SDS011;40529;52.172;10.548;2023-07-20T13:15:16;0.50;;;0.28;;
53062;SDS011;40529;52.172;10.548;2023-07-20T13:17:42;2.63;;;0.50;;
53062;SDS011;40529;52.172;10.548;2023-07-20T13:20:09;0.88;;;0.40;;
53062;SDS011;40529;52.172;10.548;2023-07-20T13:22:38;1.40;;;0.30;;
53062;SDS011;40529;52.172;10.548;2023-07-20T13:25:04;0.97;;;0.60;;
53062;SDS011;40529;52.172;10.548;2023-07-20T13:27:31;1.17;;;0.50;;
53062;SDS011;40529;52.172;10.548;2023-07-20T13:30:00;2.80;;;0.35;;
53062;SDS011;40529;52.172;10.548;2023-07-20T13:32:31;0.50;;;0.40;;
53062;SDS011;40529;52.172;10.548;2023-07-20T13:34:57;0.70;;;0.50;;
53062;SDS011;40529;52.172;10.548;2023-07-20T13:37:23;1.45;;;0.68;;
53062;SDS011;40529;52.172;10.548;2023-07-20T13:39:49;1.20;;;0.40;;
53062;SDS011;40529;52.172;10.548;2023-07-20T13:42:15;0.70;;;0.30;;
53062;SDS011;40529;52.172;10.548;2023-07-20T13:44:42;1.85;;;0.45;;
53062;SDS011;40529;52.172;10.548;2023-07-20T13:47:08;0.50;;;0.40;;
53062;SDS011;40529;52.172;10.548;2023-07-20T13:49:34;1.83;;;0.32;;
53062;SDS011;40529;52.172;10.548;2023-07-20T13:52:00;1.77;;;0.40;;
53062;SDS011;40529;52.172;10.548;2023-07-20T13:54:26;0.60;;;0.30;;
53062;SDS011;40529;52.172;10.548;2023-07-20T13:56:52;1.52;;;0.57;;
53062;SDS011;40529;52.172;10.548;2023-07-20T13:59:18;1.30;;;0.40;;
53062;SDS011;40529;52.172;10.548;2023-07-20T14:01:44;1.30;;;0.50;;
53062;SDS011;40529;52.172;10.548;2023-07-20T14:04:11;1.45;;;0.40;;
53062;SDS011;40529;52.172;10.548;2023-07-20T14:06:37;1.90;;;0.50;;
53062;SDS011;40529;52.172;10.548;2023-07-20T14:09:09;3.20;;;0.50;;
53062;SDS011;40529;52.172;10.548;2023-07-20T14:11:35;0.45;;;0.40;;
53062;SDS011;40529;52.172;10.548;2023-07-20T14:14:01;1.27;;;0.50;;
53062;SDS011;40529;52.172;10.548;2023-07-20T14:16:27;0.40;;;0.40;;
53062;SDS011;40529;52.172;10.548;2023-07-20T14:18:53;1.10;;;0.50;;
53062;SDS011;40529;52.172;10.548;2023-07-20T14:21:20;0.68;;;0.50;;
53062;SDS011;40529;52.172;10.548;2023-07-20T14:23:46;0.80;;;0.40;;
53062;SDS011;40529;52.172;10.548;2023-07-20T14:26:12;0.70;;;0.40;;
53062;SDS011;40529;52.172;10.548;2023-07-20T14:28:38;1.05;;;0.60;;
53062;SDS011;40529;52.172;10.548;2023-07-20T14:31:05;1.67;;;0.70;;
53062;SDS011;40529;52.172;10.548;2023-07-20T14:33:31;0.55;;;0.40;;
53062;SDS011;40529;52.172;10.548;2023-07-20T14:35:57;1.05;;;0.40;;
53062;SDS011;40529;52.172;10.548;2023-07-20T14:38:23;1.23;;;0.30;;
53062;SDS011;40529;52.172;10.548;2023-07-20T14:40:49;2.13;;;0.40;;
53062;SDS011;40529;52.172;10.548;2023-07-20T14:43:15;0.45;;;0.30;;
53062;SDS011;40529;52.172;10.548;2023-07-20T14:45:41;1.13;;;0.40;;
53062;SDS011;40529;52.172;10.548;2023-07-20T14:48:07;1.10;;;0.40;;
53062;SDS011;40529;52.172;10.548;2023-07-20T14:50:34;1.02;;;0.50;;
53062;SDS011;40529;52.172;10.548;2023-07-20T14:53:00;1.02;;;0.47;;
53062;SDS011;40529;52.172;10.548;2023-07-20T14:55:26;0.88;;;0.40;;
53062;SDS011;40529;52.172;10.548;2023-07-20T14:57:52;1.33;;;0.40;;
53062;SDS011;40529;52.172;10.548;2023-07-20T15:00:18;0.68;;;0.50;;
53062;SDS011;40529;52.172;10.548;2023-07-20T15:02:44;3.13;;;0.60;;